createdAt,value
2019-03-20T00:00:10.281Z,99.90
2019-03-20T00:02:38.848Z,99.90
2019-03-20T00:05:08.026Z,99.90
2019-03-20T00:07:37.624Z,99.90
2019-03-20T00:10:08.290Z,99.90
2019-03-20T00:12:36.863Z,99.90
2019-03-20T00:15:08.769Z,99.90
2019-03-20T00:17:37.325Z,99.90
2019-03-20T00:20:09.437Z,99.90
2019-03-20T00:22:38.084Z,99.90
2019-03-20T00:25:08.476Z,99.90
2019-03-20T00:27:37.189Z,99.90
2019-03-20T00:30:11.477Z,99.90
2019-03-20T00:32:40.038Z,99.90
2019-03-20T00:35:08.743Z,99.90
2019-03-20T00:37:37.306Z,99.90
2019-03-20T00:40:26.705Z,99.90
2019-03-20T00:42:55.292Z,99.90
2019-03-20T00:45:23.830Z,99.90
2019-03-20T00:47:52.401Z,99.90
2019-03-20T00:50:21.510Z,99.90
2019-03-20T00:52:50.136Z,99.90
2019-03-20T00:55:20.292Z,99.90
2019-03-20T00:57:49.001Z,99.90
2019-03-20T01:00:25.569Z,99.90
2019-03-20T01:02:54.190Z,99.90
2019-03-20T01:05:22.751Z,99.90
2019-03-20T01:07:51.387Z,99.90
2019-03-20T01:10:24.778Z,99.90
2019-03-20T01:12:53.630Z,99.90
2019-03-20T01:15:22.375Z,99.90
2019-03-20T01:17:50.965Z,99.90
2019-03-20T01:20:21.450Z,99.90
2019-03-20T01:22:50.396Z,99.90
2019-03-20T01:25:19.544Z,99.90
2019-03-20T01:27:48.190Z,99.90
2019-03-20T01:30:33.941Z,99.90
2019-03-20T01:33:13.380Z,99.90
2019-03-20T01:35:43.103Z,99.90
2019-03-20T01:38:11.756Z,99.90
2019-03-20T01:40:40.947Z,99.90
2019-03-20T01:43:09.745Z,99.90
2019-03-20T01:45:38.357Z,99.90
2019-03-20T01:48:07.071Z,99.90
2019-03-20T01:50:35.635Z,99.90
2019-03-20T01:53:05.757Z,99.90
2019-03-20T01:55:34.321Z,99.90
2019-03-20T01:58:02.899Z,99.90
2019-03-20T02:00:31.689Z,99.90
2019-03-20T02:03:00.279Z,99.90
2019-03-20T02:05:35.649Z,99.90
2019-03-20T02:07:59.034Z,99.90
2019-03-20T02:10:27.592Z,99.90
2019-03-20T02:12:58.579Z,99.90
2019-03-20T02:15:37.662Z,99.90
2019-03-20T02:17:56.712Z,99.90
2019-03-20T02:20:25.253Z,99.90
2019-03-20T02:22:53.749Z,99.90
2019-03-20T02:25:22.233Z,99.90
2019-03-20T02:27:50.838Z,99.90
2019-03-20T02:30:21.290Z,99.90
2019-03-20T02:32:49.853Z,99.90
2019-03-20T02:35:18.397Z,99.90
2019-03-20T02:37:46.999Z,99.90
2019-03-20T02:40:16.050Z,99.90
2019-03-20T02:42:44.800Z,99.90
2019-03-20T02:45:17.999Z,99.90
2019-03-20T02:47:46.557Z,99.90
2019-03-20T02:50:15.468Z,99.90
2019-03-20T02:52:44.191Z,99.90
2019-03-20T02:55:13.283Z,99.90
2019-03-20T02:57:41.855Z,99.90
2019-03-20T03:00:20.985Z,99.90
2019-03-20T03:02:49.900Z,99.90
2019-03-20T03:05:18.787Z,99.90
2019-03-20T03:07:47.473Z,99.90
2019-03-20T03:10:17.972Z,99.90
2019-03-20T03:12:46.576Z,99.90
2019-03-20T03:15:16.238Z,99.90
2019-03-20T03:17:44.975Z,99.90
2019-03-20T03:20:15.419Z,99.90
2019-03-20T03:22:44.255Z,99.90
2019-03-20T03:25:15.927Z,99.90
2019-03-20T03:27:45.398Z,99.90
2019-03-20T03:30:17.717Z,99.90
2019-03-20T03:32:46.764Z,99.90
2019-03-20T03:35:18.693Z,99.90
2019-03-20T03:37:45.949Z,99.90
2019-03-20T03:40:16.368Z,99.90
2019-03-20T03:42:45.048Z,99.90
2019-03-20T03:45:15.196Z,99.90
2019-03-20T03:47:43.742Z,99.90
2019-03-20T03:50:12.960Z,99.90
2019-03-20T03:52:41.524Z,99.90
2019-03-20T03:55:16.404Z,99.90
2019-03-20T03:57:45.315Z,99.90
2019-03-20T04:00:18.061Z,99.90
2019-03-20T04:02:47.042Z,99.90
2019-03-20T04:05:15.764Z,99.90
2019-03-20T04:07:44.604Z,99.90
2019-03-20T04:10:17.339Z,99.90
2019-03-20T04:12:46.133Z,99.90
2019-03-20T04:15:16.405Z,99.90
2019-03-20T04:17:44.986Z,99.90
2019-03-20T04:20:16.679Z,99.90
2019-03-20T04:22:45.175Z,99.90
2019-03-20T04:25:14.112Z,99.90
2019-03-20T04:27:43.081Z,99.90
2019-03-20T04:30:16.582Z,99.90
2019-03-20T04:32:45.146Z,99.90
2019-03-20T04:35:14.373Z,99.90
2019-03-20T04:37:43.073Z,99.90
2019-03-20T04:40:16.822Z,99.90
2019-03-20T04:42:45.438Z,99.90
2019-03-20T04:45:15.942Z,99.90
2019-03-20T04:47:44.822Z,99.90
2019-03-20T04:50:17.921Z,99.90
2019-03-20T04:52:46.534Z,99.90
2019-03-20T04:55:15.119Z,99.90
2019-03-20T04:57:45.622Z,99.90
2019-03-20T05:00:21.126Z,99.90
2019-03-20T05:02:49.674Z,99.90
2019-03-20T05:05:18.311Z,99.90
2019-03-20T05:07:46.896Z,99.90
2019-03-20T05:10:19.267Z,99.90
2019-03-20T05:12:47.825Z,99.90
2019-03-20T05:15:16.470Z,99.90
2019-03-20T05:17:45.005Z,99.90
2019-03-20T05:20:19.261Z,99.90
2019-03-20T05:22:47.845Z,99.90
2019-03-20T05:25:16.419Z,99.90
2019-03-20T05:27:44.997Z,99.90
2019-03-20T05:30:16.975Z,99.90
2019-03-20T05:32:45.902Z,99.90
2019-03-20T05:35:14.393Z,99.90
2019-03-20T05:37:42.884Z,99.90
2019-03-20T05:40:13.775Z,99.90
2019-03-20T05:42:42.422Z,99.90
2019-03-20T05:45:20.061Z,99.90
2019-03-20T05:47:48.873Z,99.90
2019-03-20T05:50:18.095Z,99.90
2019-03-20T05:52:46.637Z,99.90
2019-03-20T05:55:15.202Z,99.90
2019-03-20T05:57:43.763Z,99.90
2019-03-20T06:00:16.081Z,99.90
2019-03-20T06:02:44.568Z,99.90
2019-03-20T06:05:13.186Z,99.90
2019-03-20T06:07:41.679Z,99.90
2019-03-20T06:10:16.145Z,99.90
2019-03-20T06:12:44.696Z,99.90
2019-03-20T06:15:14.180Z,99.90
2019-03-20T06:17:42.992Z,99.90
2019-03-20T06:20:15.121Z,99.90
2019-03-20T06:22:43.694Z,99.90
2019-03-20T06:25:14.339Z,99.90
2019-03-20T06:27:43.047Z,99.90
2019-03-20T06:30:19.774Z,99.90
2019-03-20T06:32:48.268Z,99.90
2019-03-20T06:35:16.877Z,99.90
2019-03-20T06:37:45.449Z,99.90
2019-03-20T06:40:15.332Z,99.90
2019-03-20T06:42:43.965Z,99.90
2019-03-20T06:45:17.064Z,99.90
2019-03-20T06:47:45.620Z,99.90
2019-03-20T06:50:19.717Z,99.90
2019-03-20T06:52:48.215Z,99.90
2019-03-20T06:55:16.757Z,99.90
2019-03-20T06:57:45.321Z,99.90
2019-03-20T07:00:33.277Z,99.90
2019-03-20T07:03:04.369Z,99.90
2019-03-20T07:05:42.048Z,99.90
2019-03-20T07:08:10.487Z,99.90
2019-03-20T07:10:47.826Z,99.90
2019-03-20T07:13:16.397Z,99.90
2019-03-20T07:15:44.869Z,99.90
2019-03-20T07:18:13.446Z,99.90
2019-03-20T07:20:41.989Z,99.90
2019-03-20T07:23:10.568Z,99.90
2019-03-20T07:25:39.113Z,99.90
2019-03-20T07:28:07.649Z,99.90
2019-03-20T07:30:36.201Z,99.90
2019-03-20T07:33:04.769Z,99.90
2019-03-20T07:35:33.321Z,99.90
2019-03-20T07:38:02.369Z,99.90
2019-03-20T07:40:30.854Z,99.90
2019-03-20T07:43:08.142Z,99.90
2019-03-20T07:45:29.549Z,99.90
2019-03-20T07:47:58.177Z,99.90
2019-03-20T07:50:26.815Z,99.90
2019-03-20T07:52:55.384Z,99.90
2019-03-20T07:55:23.934Z,99.90
2019-03-20T07:57:52.439Z,99.90
2019-03-20T08:00:20.986Z,99.90
2019-03-20T08:02:49.506Z,99.90
2019-03-20T08:05:28.463Z,99.90
2019-03-20T08:07:48.342Z,99.90
2019-03-20T08:10:18.739Z,99.90
2019-03-20T08:12:47.310Z,99.90
2019-03-20T08:15:17.569Z,99.90
2019-03-20T08:17:46.392Z,99.90
2019-03-20T08:20:21.058Z,99.90
2019-03-20T08:22:49.626Z,99.90
2019-03-20T08:25:18.173Z,99.90
2019-03-20T08:27:46.742Z,99.10
2019-03-20T08:30:16.921Z,99.00
2019-03-20T08:32:45.557Z,98.80
2019-03-20T08:35:14.782Z,98.90
2019-03-20T08:37:43.433Z,98.60
2019-03-20T08:40:18.735Z,98.00
2019-03-20T08:42:47.547Z,97.60
2019-03-20T08:45:19.540Z,97.00
2019-03-20T08:47:48.209Z,94.50
2019-03-20T08:50:21.740Z,94.30
2019-03-20T08:52:50.259Z,94.00
2019-03-20T08:55:19.843Z,92.10
2019-03-20T08:57:48.648Z,92.50
2019-03-20T09:00:24.634Z,92.20
2019-03-20T09:02:53.445Z,90.90
2019-03-20T09:05:22.053Z,90.90
2019-03-20T09:07:50.517Z,90.60
2019-03-20T09:10:20.425Z,86.00
2019-03-20T09:12:49.298Z,85.50
2019-03-20T09:15:19.123Z,83.90
2019-03-20T09:17:47.819Z,83.50
2019-03-20T09:20:21.299Z,79.90
2019-03-20T09:22:49.922Z,80.00
2019-03-20T09:25:23.423Z,78.80
2019-03-20T09:27:52.045Z,77.30
2019-03-20T09:30:23.673Z,76.80
2019-03-20T09:32:52.493Z,74.30
2019-03-20T09:35:21.132Z,71.60
2019-03-20T09:37:52.124Z,70.80
2019-03-20T09:40:24.043Z,72.10
2019-03-20T09:42:52.654Z,72.60
2019-03-20T09:45:22.448Z,72.30
2019-03-20T09:47:50.936Z,70.40
2019-03-20T09:50:24.605Z,70.50
2019-03-20T09:52:53.220Z,69.90
2019-03-20T09:55:21.815Z,70.00
2019-03-20T09:57:50.346Z,70.60
2019-03-20T10:00:24.182Z,70.80
2019-03-20T10:02:52.881Z,68.30
2019-03-20T10:05:22.912Z,67.40
2019-03-20T10:07:51.978Z,69.10
2019-03-20T10:10:30.760Z,67.40
2019-03-20T10:12:59.610Z,69.10
2019-03-20T10:15:31.932Z,67.20
2019-03-20T10:18:00.596Z,66.30
2019-03-20T10:20:29.313Z,65.30
2019-03-20T10:22:57.815Z,65.30
2019-03-20T10:25:26.414Z,66.30
2019-03-20T10:27:54.949Z,64.30
2019-03-20T10:30:24.298Z,64.00
2019-03-20T10:32:53.129Z,62.50
2019-03-20T10:35:21.766Z,63.20
2019-03-20T10:37:50.429Z,64.40
2019-03-20T10:40:28.578Z,66.40
2019-03-20T10:42:57.234Z,64.70
2019-03-20T10:45:25.916Z,64.80
2019-03-20T10:47:54.489Z,64.10
2019-03-20T10:50:26.833Z,60.00
2019-03-20T10:52:55.419Z,62.50
2019-03-20T10:55:24.292Z,60.70
2019-03-20T10:57:52.884Z,57.70
2019-03-20T11:00:28.684Z,57.90
2019-03-20T11:02:57.490Z,59.50
2019-03-20T11:05:26.197Z,60.90
2019-03-20T11:07:54.757Z,62.40
2019-03-20T11:10:24.398Z,60.00
2019-03-20T11:12:53.246Z,57.20
2019-03-20T11:15:22.889Z,59.00
2019-03-20T11:17:52.564Z,60.00
2019-03-20T11:20:22.413Z,57.40
2019-03-20T11:22:51.326Z,58.60
2019-03-20T11:25:21.938Z,60.40
2019-03-20T11:27:50.807Z,61.20
2019-03-20T11:30:24.736Z,59.00
2019-03-20T11:32:53.318Z,60.60
2019-03-20T11:35:22.632Z,58.20
2019-03-20T11:37:51.353Z,58.10
2019-03-20T11:40:33.421Z,59.60
2019-03-20T11:43:02.400Z,56.50
2019-03-20T11:45:31.049Z,57.00
2019-03-20T11:47:59.646Z,57.10
2019-03-20T11:50:39.010Z,56.70
2019-03-20T11:53:08.975Z,56.20
2019-03-20T11:55:38.124Z,55.60
2019-03-20T11:58:07.661Z,53.90
2019-03-20T12:00:36.525Z,51.80
2019-03-20T12:03:05.737Z,49.70
2019-03-20T12:05:34.526Z,48.00
2019-03-20T12:08:03.441Z,46.50
2019-03-20T12:10:33.179Z,44.70
2019-03-20T12:13:01.908Z,41.70
2019-03-20T12:15:30.573Z,41.40
2019-03-20T12:17:59.152Z,38.40
2019-03-20T12:20:27.768Z,38.90
2019-03-20T12:22:56.402Z,37.30
2019-03-20T12:25:29.477Z,35.00
2019-03-20T12:27:58.529Z,35.50
2019-03-20T12:30:32.265Z,33.10
2019-03-20T12:33:00.930Z,32.00
2019-03-20T12:35:54.280Z,31.50
2019-03-20T12:38:22.873Z,31.00
2019-03-20T12:40:51.479Z,30.00
2019-03-20T12:43:20.132Z,29.80
2019-03-20T12:45:48.735Z,30.00
2019-03-20T12:48:18.889Z,30.20
2019-03-20T12:50:47.490Z,31.40
2019-03-20T12:53:30.735Z,31.50
2019-03-20T12:55:59.337Z,31.20
2019-03-20T12:58:27.917Z,29.50
2019-03-20T13:00:56.537Z,29.90
2019-03-20T13:03:25.113Z,29.60
2019-03-20T13:05:53.784Z,28.40
2019-03-20T13:08:22.378Z,28.90
2019-03-20T13:10:51.041Z,28.30
2019-03-20T13:13:20.393Z,28.00
2019-03-20T13:15:49.146Z,27.90
2019-03-20T13:18:17.725Z,27.60
2019-03-20T13:20:46.325Z,27.00
2019-03-20T13:23:23.499Z,26.50
2019-03-20T13:25:52.102Z,25.50
2019-03-20T13:28:20.681Z,26.20
2019-03-20T13:30:55.249Z,25.10
2019-03-20T13:33:26.023Z,26.00
2019-03-20T13:35:54.442Z,26.70
2019-03-20T13:38:23.026Z,27.80
2019-03-20T13:40:51.629Z,27.10
2019-03-20T13:43:20.313Z,27.00
2019-03-20T13:45:48.961Z,27.90
2019-03-20T13:48:17.688Z,28.20
2019-03-20T13:50:46.302Z,28.90
2019-03-20T13:53:15.509Z,28.40
2019-03-20T13:55:44.186Z,28.70
2019-03-20T13:58:12.779Z,29.90
2019-03-20T14:00:41.442Z,30.80
2019-03-20T14:03:10.017Z,31.50
2019-03-20T14:05:38.630Z,32.40
2019-03-20T14:08:07.223Z,31.90
2019-03-20T14:10:49.467Z,32.30
2019-03-20T14:13:06.125Z,32.00
2019-03-20T14:15:34.744Z,32.40
2019-03-20T14:18:03.396Z,34.10
2019-03-20T14:20:33.122Z,33.20
2019-03-20T14:23:01.802Z,33.30
2019-03-20T14:25:30.386Z,32.20
2019-03-20T14:27:58.985Z,32.40
2019-03-20T14:30:29.480Z,32.40
2019-03-20T14:33:03.168Z,33.20
2019-03-20T14:35:31.820Z,33.10
2019-03-20T14:38:00.488Z,32.60
2019-03-20T14:40:36.802Z,31.70
2019-03-20T14:43:00.423Z,31.50
2019-03-20T14:45:29.164Z,32.30
2019-03-20T14:47:57.829Z,32.60
2019-03-20T14:50:33.290Z,32.50
2019-03-20T14:53:01.900Z,32.80
2019-03-20T14:55:30.828Z,33.10
2019-03-20T14:57:59.438Z,33.30
2019-03-20T15:00:31.343Z,32.00
2019-03-20T15:03:00.053Z,30.40
2019-03-20T15:05:28.698Z,29.50
2019-03-20T15:07:57.302Z,29.30
2019-03-20T15:10:27.858Z,29.40
2019-03-20T15:12:57.001Z,28.90
2019-03-20T15:15:56.873Z,29.10
2019-03-20T15:18:25.489Z,29.80
2019-03-20T15:20:54.141Z,29.00
2019-03-20T15:23:22.751Z,28.40
2019-03-20T15:25:51.330Z,28.50
2019-03-20T15:28:19.936Z,29.10
2019-03-20T15:30:48.584Z,28.50
2019-03-20T15:33:17.203Z,28.30
2019-03-20T15:35:45.780Z,27.90
2019-03-20T15:38:14.383Z,27.90
2019-03-20T15:40:42.966Z,26.70
2019-03-20T15:43:11.560Z,26.10
2019-03-20T15:45:40.216Z,26.60
2019-03-20T15:48:08.897Z,25.90
2019-03-20T15:50:37.484Z,25.60
2019-03-20T15:53:06.091Z,25.50
2019-03-20T15:55:36.024Z,25.20
2019-03-20T15:58:05.005Z,25.20
2019-03-20T16:00:33.673Z,24.40
2019-03-20T16:03:05.115Z,24.70
2019-03-20T16:05:33.705Z,24.20
2019-03-20T16:08:02.394Z,25.00
2019-03-20T16:10:30.972Z,24.30
2019-03-20T16:12:59.592Z,24.00
2019-03-20T16:15:28.243Z,24.70
2019-03-20T16:17:56.871Z,24.10
2019-03-20T16:20:25.457Z,24.70
2019-03-20T16:22:54.142Z,24.80
2019-03-20T16:25:24.898Z,25.20
2019-03-20T16:27:53.601Z,26.20
2019-03-20T16:30:26.493Z,26.50
2019-03-20T16:32:56.502Z,26.10
2019-03-20T16:35:25.248Z,26.40
2019-03-20T16:37:54.398Z,26.60
2019-03-20T16:40:33.893Z,26.20
2019-03-20T16:43:02.505Z,27.00
2019-03-20T16:45:32.025Z,27.70
2019-03-20T16:48:00.805Z,29.30
2019-03-20T16:50:29.405Z,30.50
2019-03-20T16:52:58.008Z,31.00
2019-03-20T16:55:26.801Z,31.90
2019-03-20T16:57:55.392Z,32.90
2019-03-20T17:00:26.497Z,33.50
2019-03-20T17:02:55.242Z,33.60
2019-03-20T17:05:24.330Z,34.20
2019-03-20T17:07:52.981Z,34.10
2019-03-20T17:10:24.660Z,34.70
2019-03-20T17:12:53.236Z,34.60
2019-03-20T17:15:23.796Z,34.60
2019-03-20T17:17:52.454Z,35.00
2019-03-20T17:20:21.224Z,35.20
2019-03-20T17:22:49.835Z,35.30
2019-03-20T17:25:18.442Z,36.10
2019-03-20T17:27:47.295Z,37.20
2019-03-20T17:30:21.061Z,37.70
2019-03-20T17:32:49.726Z,38.10
2019-03-20T17:35:18.392Z,38.70
2019-03-20T17:37:46.973Z,39.30
2019-03-20T17:40:18.389Z,40.00
2019-03-20T17:42:47.073Z,39.90
2019-03-20T17:45:18.125Z,41.00
2019-03-20T17:47:46.850Z,41.50
2019-03-20T17:50:18.202Z,42.00
2019-03-20T17:52:46.864Z,42.00
2019-03-20T17:55:15.469Z,42.40
2019-03-20T17:57:44.050Z,42.60
2019-03-20T18:00:22.741Z,43.90
2019-03-20T18:02:51.338Z,43.40
2019-03-20T18:05:20.112Z,43.70
2019-03-20T18:07:48.696Z,43.80
2019-03-20T18:10:17.311Z,44.10
2019-03-20T18:12:45.878Z,44.60
2019-03-20T18:15:16.229Z,44.60
2019-03-20T18:17:44.816Z,45.50
2019-03-20T18:20:16.775Z,45.40
2019-03-20T18:22:45.394Z,45.70
2019-03-20T18:25:14.547Z,46.50
2019-03-20T18:27:43.140Z,46.90
2019-03-20T18:30:19.820Z,47.30
2019-03-20T18:32:48.464Z,47.00
2019-03-20T18:35:17.651Z,47.50
2019-03-20T18:37:46.409Z,47.60
2019-03-20T18:40:19.928Z,48.00
2019-03-20T18:42:48.589Z,48.40
2019-03-20T18:45:21.365Z,48.40
2019-03-20T18:47:50.085Z,48.30
2019-03-20T18:50:19.978Z,48.50
2019-03-20T18:52:48.974Z,48.50
2019-03-20T18:55:18.874Z,49.90
2019-03-20T18:57:47.653Z,50.50
2019-03-20T19:00:30.666Z,50.00
2019-03-20T19:03:05.178Z,50.60
2019-03-20T19:05:42.394Z,50.20
2019-03-20T19:08:11.043Z,50.10
2019-03-20T19:10:39.760Z,49.70
2019-03-20T19:13:08.365Z,49.50
2019-03-20T19:15:36.907Z,49.70
2019-03-20T19:18:05.453Z,49.40
2019-03-20T19:20:33.940Z,50.20
2019-03-20T19:23:02.491Z,50.00
2019-03-20T19:25:31.082Z,50.20
2019-03-20T19:27:59.613Z,50.70
2019-03-20T19:30:28.177Z,50.90
2019-03-20T19:32:56.721Z,51.40
2019-03-20T19:35:25.374Z,51.40
2019-03-20T19:37:53.940Z,51.40
2019-03-20T19:40:23.058Z,51.00
2019-03-20T19:42:51.632Z,50.90
2019-03-20T19:45:20.571Z,50.90
2019-03-20T19:47:49.129Z,50.90
2019-03-20T19:50:18.944Z,51.20
2019-03-20T19:52:47.555Z,51.20
2019-03-20T19:55:17.927Z,50.90
2019-03-20T19:57:46.529Z,51.40
2019-03-20T20:00:16.765Z,50.50
2019-03-20T20:02:45.430Z,50.80
2019-03-20T20:05:15.898Z,50.70
2019-03-20T20:07:44.879Z,50.50
2019-03-20T20:10:15.546Z,50.40
2019-03-20T20:12:44.233Z,50.50
2019-03-20T20:15:23.778Z,50.40
2019-03-20T20:17:52.393Z,50.40
2019-03-20T20:20:31.616Z,50.50
2019-03-20T20:23:00.076Z,50.30
2019-03-20T20:25:28.649Z,50.70
2019-03-20T20:27:57.121Z,50.50
2019-03-20T20:30:25.673Z,50.80
2019-03-20T20:32:54.245Z,50.70
2019-03-20T20:35:22.803Z,50.90
2019-03-20T20:37:51.436Z,51.00
2019-03-20T20:40:28.329Z,51.00
2019-03-20T20:42:56.886Z,51.20
2019-03-20T20:45:25.428Z,51.50
2019-03-20T20:47:53.981Z,51.70
2019-03-20T20:50:22.477Z,51.70
2019-03-20T20:52:50.975Z,51.80
2019-03-20T20:55:23.242Z,51.90
2019-03-20T20:57:51.878Z,51.80
2019-03-20T21:00:23.885Z,51.80
2019-03-20T21:02:52.710Z,52.90
2019-03-20T21:05:21.256Z,53.70
2019-03-20T21:07:49.955Z,54.20
2019-03-20T21:10:25.767Z,54.50
2019-03-20T21:12:57.177Z,54.70
2019-03-20T21:15:35.876Z,55.00
2019-03-20T21:18:16.399Z,54.80
2019-03-20T21:20:45.580Z,54.30
2019-03-20T21:23:33.644Z,54.20
2019-03-20T21:26:02.781Z,54.50
2019-03-20T21:29:07.585Z,54.60
2019-03-20T21:31:38.695Z,54.60
2019-03-20T21:34:37.560Z,55.10
2019-03-20T21:37:17.896Z,55.00
2019-03-20T21:39:46.454Z,54.90
2019-03-20T21:42:21.164Z,55.10
2019-03-20T21:45:08.843Z,55.50
2019-03-20T21:47:36.894Z,55.60
2019-03-20T21:50:31.208Z,56.10
2019-03-20T21:52:59.753Z,56.00
2019-03-20T21:56:04.782Z,56.00
2019-03-20T21:58:35.901Z,56.30
2019-03-20T22:01:19.569Z,56.30
2019-03-20T22:03:48.137Z,56.70
2019-03-20T22:06:34.635Z,57.00
2019-03-20T22:09:05.180Z,57.60
2019-03-20T22:11:36.812Z,57.30
2019-03-20T22:14:11.842Z,58.50
2019-03-20T22:17:03.185Z,59.20
2019-03-20T22:19:34.818Z,59.10
2019-03-20T22:22:20.848Z,59.50
2019-03-20T22:25:16.997Z,59.80
2019-03-20T22:27:54.396Z,60.20
2019-03-20T22:30:23.015Z,61.30
2019-03-20T22:33:20.116Z,62.80
2019-03-20T22:35:49.327Z,62.90
2019-03-20T22:38:20.981Z,64.20
2019-03-20T22:41:26.478Z,65.10
2019-03-20T22:43:58.453Z,65.80
2019-03-20T22:47:14.999Z,67.00
2019-03-20T22:50:09.837Z,67.20
2019-03-20T22:52:58.429Z,67.00
2019-03-20T22:55:50.391Z,67.50
2019-03-20T22:58:45.601Z,68.40
2019-03-20T23:01:31.858Z,70.20
2019-03-20T23:04:12.754Z,71.80
2019-03-20T23:06:41.279Z,72.00
2019-03-20T23:09:10.430Z,71.10
2019-03-20T23:11:39.137Z,71.60
2019-03-20T23:14:07.708Z,71.30
2019-03-20T23:16:36.255Z,71.80
2019-03-20T23:19:04.892Z,72.70
2019-03-20T23:21:33.373Z,73.80
2019-03-20T23:24:01.932Z,76.30
2019-03-20T23:26:30.632Z,76.90
2019-03-20T23:28:59.194Z,77.80
2019-03-20T23:31:27.694Z,78.50
2019-03-20T23:33:56.314Z,80.20
2019-03-20T23:36:25.301Z,82.30
2019-03-20T23:38:53.797Z,84.40
2019-03-20T23:41:22.342Z,85.70
2019-03-20T23:43:53.123Z,87.00
2019-03-20T23:46:21.106Z,86.10
2019-03-20T23:49:04.277Z,86.70
2019-03-20T23:51:34.963Z,87.80
2019-03-20T23:54:03.798Z,87.80
2019-03-20T23:56:36.782Z,87.00
2019-03-20T23:59:06.184Z,87.40
